sensor_id;sensor_type;location;lat;lon;timestamp;pressure;altitude;pressure_sealevel;temperature;humidity
74045;BME280;62389;51.412;5.436;2023-11-18T00:01:56;102279.59;;;4.34;100.00
74045;BME280;62389;51.412;5.436;2023-11-18T00:04:21;102283.94;;;4.35;100.00
74045;BME280;62389;51.412;5.436;2023-11-18T00:06:47;102280.50;;;4.37;100.00
74045;BME280;62389;51.412;5.436;2023-11-18T00:09:13;102272.72;;;4.39;100.00
74045;BME280;62389;51.412;5.436;2023-11-18T00:11:39;102278.78;;;4.38;100.00
74045;BME280;62389;51.412;5.436;2023-11-18T00:14:05;102288.25;;;4.34;100.00
74045;BME280;62389;51.412;5.436;2023-11-18T00:16:30;102289.94;;;4.28;100.00
74045;BME280;62389;51.412;5.436;2023-11-18T00:18:56;102286.47;;;4.24;100.00
74045;BME280;62389;51.412;5.436;2023-11-18T00:21:24;102282.97;;;4.21;100.00
74045;BME280;62389;51.412;5.436;2023-11-18T00:23:49;102277.78;;;4.16;100.00
74045;BME280;62389;51.412;5.436;2023-11-18T00:26:14;102280.38;;;4.14;100.00
74045;BME280;62389;51.412;5.436;2023-11-18T00:28:40;102276.91;;;4.12;100.00
74045;BME280;62389;51.412;5.436;2023-11-18T00:31:05;102273.44;;;4.10;100.00
74045;BME280;62389;51.412;5.436;2023-11-18T00:33:31;102275.16;;;4.11;100.00
74045;BME280;62389;51.412;5.436;2023-11-18T00:35:57;102275.19;;;4.14;100.00
74045;BME280;62389;51.412;5.436;2023-11-18T00:38:22;102274.31;;;4.15;100.00
74045;BME280;62389;51.412;5.436;2023-11-18T00:40:48;102279.53;;;4.17;100.00
74045;BME280;62389;51.412;5.436;2023-11-18T00:43:13;102271.75;;;4.19;100.00
74045;BME280;62389;51.412;5.436;2023-11-18T00:45:39;102265.72;;;4.21;100.00
74045;BME280;62389;51.412;5.436;2023-11-18T00:48:05;102266.56;;;4.22;100.00
74045;BME280;62389;51.412;5.436;2023-11-18T00:50:31;102260.53;;;4.21;100.00
74045;BME280;62389;51.412;5.436;2023-11-18T00:52:58;102266.56;;;4.22;100.00
74045;BME280;62389;51.412;5.436;2023-11-18T00:55:23;102262.25;;;4.19;100.00
74045;BME280;62389;51.412;5.436;2023-11-18T00:57:49;102264.84;;;4.18;100.00
74045;BME280;62389;51.412;5.436;2023-11-18T01:00:15;102268.28;;;4.15;100.00
74045;BME280;62389;51.412;5.436;2023-11-18T01:02:47;102259.66;;;4.14;100.00
74045;BME280;62389;51.412;5.436;2023-11-18T01:05:14;102267.38;;;4.11;100.00
74045;BME280;62389;51.412;5.436;2023-11-18T01:07:40;102272.56;;;4.10;100.00
74045;BME280;62389;51.412;5.436;2023-11-18T01:10:07;102277.75;;;4.07;100.00
74045;BME280;62389;51.412;5.436;2023-11-18T01:12:33;102275.13;;;4.02;100.00
74045;BME280;62389;51.412;5.436;2023-11-18T01:14:59;102272.50;;;3.98;100.00
74045;BME280;62389;51.412;5.436;2023-11-18T01:17:24;102281.94;;;3.91;100.00
74045;BME280;62389;51.412;5.436;2023-11-18T01:19:50;102280.16;;;3.85;100.00
74045;BME280;62389;51.412;5.436;2023-11-18T01:22:15;102275.81;;;3.81;100.00
74045;BME280;62389;51.412;5.436;2023-11-18T01:24:43;102277.53;;;3.79;100.00
74045;BME280;62389;51.412;5.436;2023-11-18T01:27:09;102275.81;;;3.81;100.00
74045;BME280;62389;51.412;5.436;2023-11-18T01:29:35;102287.97;;;3.88;100.00
74045;BME280;62389;51.412;5.436;2023-11-18T01:32:01;102287.13;;;3.94;100.00
74045;BME280;62389;51.412;5.436;2023-11-18T01:34:33;102281.13;;;3.98;100.00
74045;BME280;62389;51.412;5.436;2023-11-18T01:36:59;102286.31;;;4.01;100.00
74045;BME280;62389;51.412;5.436;2023-11-18T01:39:24;102293.25;;;4.04;100.00
74045;BME280;62389;51.412;5.436;2023-11-18T01:41:51;102288.09;;;4.07;100.00
74045;BME280;62389;51.412;5.436;2023-11-18T01:44:17;102288.97;;;4.07;100.00
74045;BME280;62389;51.412;5.436;2023-11-18T01:46:45;102276.88;;;4.11;100.00
74045;BME280;62389;51.412;5.436;2023-11-18T01:49:12;102277.78;;;4.14;100.00
74045;BME280;62389;51.412;5.436;2023-11-18T01:51:42;102283.84;;;4.20;100.00
74045;BME280;62389;51.412;5.436;2023-11-18T01:54:09;102287.31;;;4.25;100.00
74045;BME280;62389;51.412;5.436;2023-11-18T01:56:41;102285.63;;;4.27;100.00
74045;BME280;62389;51.412;5.436;2023-11-18T01:59:08;102282.16;;;4.31;100.00
74045;BME280;62389;51.412;5.436;2023-11-18T02:01:35;102284.78;;;4.35;100.00
74045;BME280;62389;51.412;5.436;2023-11-18T02:04:01;102280.50;;;4.39;100.00
74045;BME280;62389;51.412;5.436;2023-11-18T02:06:28;102289.13;;;4.41;100.00
74045;BME280;62389;51.412;5.436;2023-11-18T02:08:53;102276.19;;;4.44;100.00
74045;BME280;62389;51.412;5.436;2023-11-18T02:13:52;102275.34;;;4.42;100.00
74045;BME280;62389;51.412;5.436;2023-11-18T02:16:20;102268.44;;;4.44;100.00
74045;BME280;62389;51.412;5.436;2023-11-18T02:18:47;102268.47;;;4.47;100.00
74045;BME280;62389;51.412;5.436;2023-11-18T02:21:15;102280.53;;;4.51;100.00
74045;BME280;62389;51.412;5.436;2023-11-18T02:23:41;102278.81;;;4.52;100.00
74045;BME280;62389;51.412;5.436;2023-11-18T02:26:08;102278.84;;;4.53;100.00
74045;BME280;62389;51.412;5.436;2023-11-18T02:28:34;102279.69;;;4.55;100.00
74045;BME280;62389;51.412;5.436;2023-11-18T02:31:15;102276.25;;;4.56;100.00
74045;BME280;62389;51.412;5.436;2023-11-18T02:33:59;102290.09;;;4.58;100.00
74045;BME280;62389;51.412;5.436;2023-11-18T02:36:37;102297.00;;;4.59;100.00
74045;BME280;62389;51.412;5.436;2023-11-18T02:39:08;102291.81;;;4.59;100.00
74045;BME280;62389;51.412;5.436;2023-11-18T02:41:37;102289.22;;;4.59;100.00
74045;BME280;62389;51.412;5.436;2023-11-18T02:44:04;102273.69;;;4.59;100.00
74045;BME280;62389;51.412;5.436;2023-11-18T02:46:36;102269.34;;;4.58;100.00
74045;BME280;62389;51.412;5.436;2023-11-18T02:49:01;102271.09;;;4.59;100.00
74045;BME280;62389;51.412;5.436;2023-11-18T02:51:28;102276.28;;;4.59;100.00
74045;BME280;62389;51.412;5.436;2023-11-18T02:53:54;102269.34;;;4.60;100.00
74045;BME280;62389;51.412;5.436;2023-11-18T02:56:20;102260.72;;;4.61;100.00
74045;BME280;62389;51.412;5.436;2023-11-18T02:58:45;102252.06;;;4.60;100.00
74045;BME280;62389;51.412;5.436;2023-11-18T03:01:11;102250.34;;;4.59;100.00
74045;BME280;62389;51.412;5.436;2023-11-18T03:03:36;102247.75;;;4.59;100.00
74045;BME280;62389;51.412;5.436;2023-11-18T03:06:01;102244.31;;;4.60;100.00
74045;BME280;62389;51.412;5.436;2023-11-18T03:08:27;102240.00;;;4.62;100.00
74045;BME280;62389;51.412;5.436;2023-11-18T03:10:54;102232.25;;;4.62;100.00
74045;BME280;62389;51.412;5.436;2023-11-18T03:13:20;102235.66;;;4.61;100.00
74045;BME280;62389;51.412;5.436;2023-11-18T03:15:45;102237.41;;;4.62;100.00
74045;BME280;62389;51.412;5.436;2023-11-18T03:18:13;102224.47;;;4.62;100.00
74045;BME280;62389;51.412;5.436;2023-11-18T03:20:40;102231.38;;;4.62;100.00
74045;BME280;62389;51.412;5.436;2023-11-18T03:23:06;102230.50;;;4.63;100.00
74045;BME280;62389;51.412;5.436;2023-11-18T03:25:34;102240.00;;;4.64;100.00
74045;BME280;62389;51.412;5.436;2023-11-18T03:28:00;102238.28;;;4.63;100.00
74045;BME280;62389;51.412;5.436;2023-11-18T03:30:25;102239.16;;;4.63;100.00
74045;BME280;62389;51.412;5.436;2023-11-18T03:32:50;102237.41;;;4.62;100.00
74045;BME280;62389;51.412;5.436;2023-11-18T03:35:16;102233.94;;;4.60;100.00
74045;BME280;62389;51.412;5.436;2023-11-18T03:37:41;102229.63;;;4.59;100.00
74045;BME280;62389;51.412;5.436;2023-11-18T03:40:08;102220.13;;;4.58;100.00
74045;BME280;62389;51.412;5.436;2023-11-18T03:42:34;102221.00;;;4.59;100.00
74045;BME280;62389;51.412;5.436;2023-11-18T03:45:01;102216.66;;;4.59;100.00
74045;BME280;62389;51.412;5.436;2023-11-18T03:47:26;102205.47;;;4.62;100.00
74045;BME280;62389;51.412;5.436;2023-11-18T03:49:52;102212.34;;;4.61;100.00
74045;BME280;62389;51.412;5.436;2023-11-18T03:52:20;102201.13;;;4.61;100.00
74045;BME280;62389;51.412;5.436;2023-11-18T03:54:45;102192.47;;;4.60;100.00
74045;BME280;62389;51.412;5.436;2023-11-18T03:57:10;102191.63;;;4.60;100.00
74045;BME280;62389;51.412;5.436;2023-11-18T03:59:36;102192.47;;;4.59;100.00
74045;BME280;62389;51.412;5.436;2023-11-18T04:02:01;102184.69;;;4.60;100.00
74045;BME280;62389;51.412;5.436;2023-11-18T04:04:27;102178.66;;;4.61;100.00
74045;BME280;62389;51.412;5.436;2023-11-18T04:06:52;102179.53;;;4.60;100.00
74045;BME280;62389;51.412;5.436;2023-11-18T04:09:18;102171.75;;;4.60;100.00
74045;BME280;62389;51.412;5.436;2023-11-18T04:11:43;102174.38;;;4.62;100.00
74045;BME280;62389;51.412;5.436;2023-11-18T04:14:10;102170.03;;;4.62;100.00
74045;BME280;62389;51.412;5.436;2023-11-18T04:16:36;102168.28;;;4.61;100.00
74045;BME280;62389;51.412;5.436;2023-11-18T04:19:03;102169.19;;;4.63;100.00
74045;BME280;62389;51.412;5.436;2023-11-18T04:21:28;102163.13;;;4.64;100.00
74045;BME280;62389;51.412;5.436;2023-11-18T04:23:54;102162.28;;;4.67;100.00
74045;BME280;62389;51.412;5.436;2023-11-18T04:26:20;102164.88;;;4.68;100.00
74045;BME280;62389;51.412;5.436;2023-11-18T04:28:46;102162.25;;;4.70;100.00
74045;BME280;62389;51.412;5.436;2023-11-18T04:31:11;102161.41;;;4.70;100.00
74045;BME280;62389;51.412;5.436;2023-11-18T04:33:36;102158.81;;;4.71;100.00
74045;BME280;62389;51.412;5.436;2023-11-18T04:36:02;102157.94;;;4.71;100.00
74045;BME280;62389;51.412;5.436;2023-11-18T04:38:30;102154.47;;;4.72;100.00
74045;BME280;62389;51.412;5.436;2023-11-18T04:40:57;102147.56;;;4.71;100.00
74045;BME280;62389;51.412;5.436;2023-11-18T04:43:22;102142.41;;;4.69;100.00
74045;BME280;62389;51.412;5.436;2023-11-18T04:45:48;102142.38;;;4.71;100.00
74045;BME280;62389;51.412;5.436;2023-11-18T04:48:14;102141.53;;;4.72;100.00
74045;BME280;62389;51.412;5.436;2023-11-18T04:50:40;102134.63;;;4.74;100.00
74045;BME280;62389;51.412;5.436;2023-11-18T04:53:06;102127.72;;;4.76;100.00
74045;BME280;62389;51.412;5.436;2023-11-18T04:55:33;102128.59;;;4.78;100.00
74045;BME280;62389;51.412;5.436;2023-11-18T04:57:59;102129.44;;;4.77;100.00
74045;BME280;62389;51.412;5.436;2023-11-18T05:00:24;102137.22;;;4.77;100.00
74045;BME280;62389;51.412;5.436;2023-11-18T05:02:50;102129.44;;;4.77;100.00
74045;BME280;62389;51.412;5.436;2023-11-18T05:05:16;102119.06;;;4.77;100.00
74045;BME280;62389;51.412;5.436;2023-11-18T05:07:42;102113.03;;;4.78;100.00
74045;BME280;62389;51.412;5.436;2023-11-18T05:10:08;102112.16;;;4.79;100.00
74045;BME280;62389;51.412;5.436;2023-11-18T05:12:34;102107.84;;;4.81;100.00
74045;BME280;62389;51.412;5.436;2023-11-18T05:15:00;102100.09;;;4.82;100.00
74045;BME280;62389;51.412;5.436;2023-11-18T05:17:26;102092.28;;;4.81;100.00
74045;BME280;62389;51.412;5.436;2023-11-18T05:19:52;102088.81;;;4.82;100.00
74045;BME280;62389;51.412;5.436;2023-11-18T05:22:19;102083.63;;;4.82;100.00
74045;BME280;62389;51.412;5.436;2023-11-18T05:24:44;102086.22;;;4.82;100.00
74045;BME280;62389;51.412;5.436;2023-11-18T05:27:09;102079.34;;;4.82;100.00
74045;BME280;62389;51.412;5.436;2023-11-18T05:29:35;102080.22;;;4.83;100.00
74045;BME280;62389;51.412;5.436;2023-11-18T05:32:00;102083.66;;;4.85;100.00
74045;BME280;62389;51.412;5.436;2023-11-18T05:34:26;102085.38;;;4.86;100.00
74045;BME280;62389;51.412;5.436;2023-11-18T05:36:51;102083.66;;;4.88;100.00
74045;BME280;62389;51.412;5.436;2023-11-18T05:39:22;102079.34;;;4.88;100.00
74045;BME280;62389;51.412;5.436;2023-11-18T05:41:53;102084.50;;;4.90;100.00
74045;BME280;62389;51.412;5.436;2023-11-18T05:44:21;102083.63;;;4.91;100.00
74045;BME280;62389;51.412;5.436;2023-11-18T05:46:58;102070.69;;;4.92;100.00
74045;BME280;62389;51.412;5.436;2023-11-18T05:49:23;102075.88;;;4.92;100.00
74045;BME280;62389;51.412;5.436;2023-11-18T05:51:49;102068.94;;;4.91;100.00
74045;BME280;62389;51.412;5.436;2023-11-18T05:54:15;102076.75;;;4.93;100.00
74045;BME280;62389;51.412;5.436;2023-11-18T05:56:40;102059.47;;;4.93;100.00
74045;BME280;62389;51.412;5.436;2023-11-18T05:59:06;102068.09;;;4.94;100.00
74045;BME280;62389;51.412;5.436;2023-11-18T06:01:31;102068.09;;;4.94;100.00
74045;BME280;62389;51.412;5.436;2023-11-18T06:03:57;102061.16;;;4.96;100.00
74045;BME280;62389;51.412;5.436;2023-11-18T06:06:22;102055.16;;;4.97;100.00
74045;BME280;62389;51.412;5.436;2023-11-18T06:08:48;102060.31;;;4.97;100.00
74045;BME280;62389;51.412;5.436;2023-11-18T06:11:15;102047.38;;;4.97;100.00
74045;BME280;62389;51.412;5.436;2023-11-18T06:13:43;102015.38;;;4.95;100.00
74045;BME280;62389;51.412;5.436;2023-11-18T06:16:12;102012.78;;;4.95;100.00
74045;BME280;62389;51.412;5.436;2023-11-18T06:18:39;102025.75;;;4.95;100.00
74045;BME280;62389;51.412;5.436;2023-11-18T06:21:06;102038.72;;;4.95;100.00
74045;BME280;62389;51.412;5.436;2023-11-18T06:23:31;102051.66;;;4.95;100.00
74045;BME280;62389;51.412;5.436;2023-11-18T06:25:58;102057.75;;;4.92;100.00
74045;BME280;62389;51.412;5.436;2023-11-18T06:28:25;102046.50;;;4.92;100.00
74045;BME280;62389;51.412;5.436;2023-11-18T06:30:51;102040.44;;;4.93;100.00
74045;BME280;62389;51.412;5.436;2023-11-18T06:33:16;102040.44;;;4.94;100.00
74045;BME280;62389;51.412;5.436;2023-11-18T06:35:43;102043.88;;;4.95;100.00
74045;BME280;62389;51.412;5.436;2023-11-18T06:38:10;102042.16;;;4.96;100.00
74045;BME280;62389;51.412;5.436;2023-11-18T06:40:38;102036.13;;;4.92;100.00
74045;BME280;62389;51.412;5.436;2023-11-18T06:43:03;102045.63;;;4.91;100.00
74045;BME280;62389;51.412;5.436;2023-11-18T06:45:36;102033.53;;;4.92;100.00
74045;BME280;62389;51.412;5.436;2023-11-18T06:48:03;102028.34;;;4.92;100.00
74045;BME280;62389;51.412;5.436;2023-11-18T06:50:30;102033.53;;;4.92;100.00
74045;BME280;62389;51.412;5.436;2023-11-18T06:52:57;102036.97;;;4.91;100.00
74045;BME280;62389;51.412;5.436;2023-11-18T06:55:24;102029.22;;;4.92;100.00
74045;BME280;62389;51.412;5.436;2023-11-18T06:57:51;102030.94;;;4.95;100.00
74045;BME280;62389;51.412;5.436;2023-11-18T07:00:17;102026.63;;;4.97;100.00
74045;BME280;62389;51.412;5.436;2023-11-18T07:02:43;102017.94;;;4.97;100.00
74045;BME280;62389;51.412;5.436;2023-11-18T07:05:09;102011.91;;;4.96;100.00
74045;BME280;62389;51.412;5.436;2023-11-18T07:07:34;102023.16;;;4.95;100.00
74045;BME280;62389;51.412;5.436;2023-11-18T07:10:00;102036.97;;;4.96;100.00
74045;BME280;62389;51.412;5.436;2023-11-18T07:12:25;102021.44;;;4.94;100.00
74045;BME280;62389;51.412;5.436;2023-11-18T07:14:50;102017.97;;;4.95;100.00
74045;BME280;62389;51.412;5.436;2023-11-18T07:17:16;102025.75;;;4.95;100.00
74045;BME280;62389;51.412;5.436;2023-11-18T07:19:44;102019.69;;;4.96;100.00
74045;BME280;62389;51.412;5.436;2023-11-18T07:22:10;102024.88;;;4.99;100.00
74045;BME280;62389;51.412;5.436;2023-11-18T07:24:35;102019.69;;;5.02;100.00
74045;BME280;62389;51.412;5.436;2023-11-18T07:27:01;102024.88;;;5.02;100.00
74045;BME280;62389;51.412;5.436;2023-11-18T07:29:26;102032.66;;;5.04;100.00
74045;BME280;62389;51.412;5.436;2023-11-18T07:31:53;102025.72;;;5.06;100.00
74045;BME280;62389;51.412;5.436;2023-11-18T07:34:21;102021.38;;;5.06;100.00
74045;BME280;62389;51.412;5.436;2023-11-18T07:36:49;102017.94;;;5.06;100.00
74045;BME280;62389;51.412;5.436;2023-11-18T07:39:15;102017.97;;;5.07;100.00
74045;BME280;62389;51.412;5.436;2023-11-18T07:41:41;102023.16;;;5.07;100.00
74045;BME280;62389;51.412;5.436;2023-11-18T07:44:07;102022.28;;;5.08;100.00
74045;BME280;62389;51.412;5.436;2023-11-18T07:46:36;102027.44;;;5.11;100.00
74045;BME280;62389;51.412;5.436;2023-11-18T07:49:03;102036.06;;;5.12;100.00
74045;BME280;62389;51.412;5.436;2023-11-18T07:51:29;102036.94;;;5.14;100.00
74045;BME280;62389;51.412;5.436;2023-11-18T07:53:54;102031.78;;;5.12;100.00
74045;BME280;62389;51.412;5.436;2023-11-18T07:56:20;102031.75;;;5.15;100.00
74045;BME280;62389;51.412;5.436;2023-11-18T07:58:47;102024.84;;;5.17;100.00
74045;BME280;62389;51.412;5.436;2023-11-18T08:01:14;102024.84;;;5.19;100.00
74045;BME280;62389;51.412;5.436;2023-11-18T08:03:41;102030.03;;;5.22;100.00
74045;BME280;62389;51.412;5.436;2023-11-18T08:06:07;102024.81;;;5.24;100.00
74045;BME280;62389;51.412;5.436;2023-11-18T08:08:34;102024.81;;;5.25;100.00
74045;BME280;62389;51.412;5.436;2023-11-18T08:10:59;102025.69;;;5.27;100.00
74045;BME280;62389;51.412;5.436;2023-11-18T08:13:25;102036.06;;;5.27;100.00
74045;BME280;62389;51.412;5.436;2023-11-18T08:15:51;102035.19;;;5.30;100.00
74045;BME280;62389;51.412;5.436;2023-11-18T08:18:18;102031.72;;;5.31;100.00
74045;BME280;62389;51.412;5.436;2023-11-18T08:20:44;102029.13;;;5.31;100.00
74045;BME280;62389;51.412;5.436;2023-11-18T08:23:10;102023.06;;;5.33;100.00
74045;BME280;62389;51.412;5.436;2023-11-18T08:25:35;102014.41;;;5.34;100.00
74045;BME280;62389;51.412;5.436;2023-11-18T08:28:02;102010.94;;;5.35;100.00
74045;BME280;62389;51.412;5.436;2023-11-18T08:30:29;102026.50;;;5.37;100.00
74045;BME280;62389;51.412;5.436;2023-11-18T08:32:54;102012.69;;;5.38;100.00
74045;BME280;62389;51.412;5.436;2023-11-18T08:35:19;102023.06;;;5.38;100.00
74045;BME280;62389;51.412;5.436;2023-11-18T08:37:47;102010.09;;;5.38;100.00
74045;BME280;62389;51.412;5.436;2023-11-18T08:40:13;102004.03;;;5.39;100.00
74045;BME280;62389;51.412;5.436;2023-11-18T08:42:42;102004.91;;;5.38;100.00
74045;BME280;62389;51.412;5.436;2023-11-18T08:45:20;102004.03;;;5.36;100.00
74045;BME280;62389;51.412;5.436;2023-11-18T08:48:04;102002.31;;;5.35;100.00
74045;BME280;62389;51.412;5.436;2023-11-18T08:50:33;102005.78;;;5.34;100.00
74045;BME280;62389;51.412;5.436;2023-11-18T08:52:58;102000.59;;;5.34;100.00
74045;BME280;62389;51.412;5.436;2023-11-18T08:55:29;101993.66;;;5.36;100.00
74045;BME280;62389;51.412;5.436;2023-11-18T08:58:08;101978.06;;;5.36;100.00
74045;BME280;62389;51.412;5.436;2023-11-18T09:00:58;101970.31;;;5.34;100.00
74045;BME280;62389;51.412;5.436;2023-11-18T09:03:39;101969.44;;;5.34;100.00
74045;BME280;62389;51.412;5.436;2023-11-18T09:06:09;101969.44;;;5.34;100.00
74045;BME280;62389;51.412;5.436;2023-11-18T09:08:46;101985.91;;;5.33;100.00
74045;BME280;62389;51.412;5.436;2023-11-18T09:11:14;101988.50;;;5.33;100.00
74045;BME280;62389;51.412;5.436;2023-11-18T09:13:42;101983.28;;;5.33;100.00
74045;BME280;62389;51.412;5.436;2023-11-18T09:16:08;101965.97;;;5.35;100.00
74045;BME280;62389;51.412;5.436;2023-11-18T09:18:38;101962.50;;;5.36;100.00
74045;BME280;62389;51.412;5.436;2023-11-18T09:21:04;101945.22;;;5.38;100.00
74045;BME280;62389;51.412;5.436;2023-11-18T09:23:40;101948.69;;;5.38;100.00
74045;BME280;62389;51.412;5.436;2023-11-18T09:26:06;101943.47;;;5.40;100.00
74045;BME280;62389;51.412;5.436;2023-11-18T09:28:33;101948.66;;;5.43;100.00
74045;BME280;62389;51.412;5.436;2023-11-18T09:31:00;101933.09;;;5.43;100.00
74045;BME280;62389;51.412;5.436;2023-11-18T09:33:29;101928.75;;;5.45;100.00
74045;BME280;62389;51.412;5.436;2023-11-18T09:35:59;101924.41;;;5.47;100.00
74045;BME280;62389;51.412;5.436;2023-11-18T09:38:32;101924.41;;;5.50;100.00
74045;BME280;62389;51.412;5.436;2023-11-18T09:40:58;101906.22;;;5.52;100.00
74045;BME280;62389;51.412;5.436;2023-11-18T09:43:28;101908.81;;;5.55;100.00
74045;BME280;62389;51.412;5.436;2023-11-18T09:46:03;101901.00;;;5.56;100.00
74045;BME280;62389;51.412;5.436;2023-11-18T09:48:29;101891.50;;;5.58;100.00
74045;BME280;62389;51.412;5.436;2023-11-18T09:50:55;101897.50;;;5.60;100.00
74045;BME280;62389;51.412;5.436;2023-11-18T09:53:22;101897.50;;;5.62;100.00
74045;BME280;62389;51.412;5.436;2023-11-18T09:56:07;101898.34;;;5.65;100.00
74045;BME280;62389;51.412;5.436;2023-11-18T09:58:50;101898.34;;;5.68;100.00
74045;BME280;62389;51.412;5.436;2023-11-18T10:01:23;101900.91;;;5.71;100.00
74045;BME280;62389;51.412;5.436;2023-11-18T10:03:53;101881.88;;;5.74;100.00
74045;BME280;62389;51.412;5.436;2023-11-18T10:06:23;101890.50;;;5.78;100.00
74045;BME280;62389;51.412;5.436;2023-11-18T10:08:52;101883.53;;;5.81;100.00
74045;BME280;62389;51.412;5.436;2023-11-18T10:11:18;101879.19;;;5.85;100.00
74045;BME280;62389;51.412;5.436;2023-11-18T10:13:48;101863.59;;;5.88;100.00
74045;BME280;62389;51.412;5.436;2023-11-18T10:16:14;101857.50;;;5.92;100.00
74045;BME280;62389;51.412;5.436;2023-11-18T10:18:39;101858.38;;;5.94;100.00
74045;BME280;62389;51.412;5.436;2023-11-18T10:21:14;101872.19;;;5.96;100.00
74045;BME280;62389;51.412;5.436;2023-11-18T10:23:58;101866.13;;;5.97;100.00
74045;BME280;62389;51.412;5.436;2023-11-18T10:26:27;101862.66;;;6.00;100.00
74045;BME280;62389;51.412;5.436;2023-11-18T10:28:52;101850.53;;;6.00;100.00
74045;BME280;62389;51.412;5.436;2023-11-18T10:31:19;101834.03;;;6.04;100.00
74045;BME280;62389;51.412;5.436;2023-11-18T10:33:45;101826.22;;;6.06;100.00
74045;BME280;62389;51.412;5.436;2023-11-18T10:36:18;101820.16;;;6.08;100.00
74045;BME280;62389;51.412;5.436;2023-11-18T10:38:48;101823.56;;;6.12;100.00
74045;BME280;62389;51.412;5.436;2023-11-18T10:41:15;101819.22;;;6.12;100.00
74045;BME280;62389;51.412;5.436;2023-11-18T10:43:42;101818.34;;;6.16;100.00
74045;BME280;62389;51.412;5.436;2023-11-18T10:46:10;101827.84;;;6.19;100.00
74045;BME280;62389;51.412;5.436;2023-11-18T10:48:43;101818.28;;;6.21;100.00
74045;BME280;62389;51.412;5.436;2023-11-18T10:51:13;101809.63;;;6.23;100.00
74045;BME280;62389;51.412;5.436;2023-11-18T10:53:40;101809.56;;;6.27;100.00
74045;BME280;62389;51.412;5.436;2023-11-18T10:56:18;101797.41;;;6.30;100.00
74045;BME280;62389;51.412;5.436;2023-11-18T10:58:45;101800.84;;;6.32;100.00
74045;BME280;62389;51.412;5.436;2023-11-18T11:01:11;101804.34;;;6.33;100.00
74045;BME280;62389;51.412;5.436;2023-11-18T11:03:55;101805.19;;;6.33;100.00
74045;BME280;62389;51.412;5.436;2023-11-18T11:06:24;101796.50;;;6.34;100.00
74045;BME280;62389;51.412;5.436;2023-11-18T11:08:53;101802.56;;;6.35;100.00
74045;BME280;62389;51.412;5.436;2023-11-18T11:11:22;101791.28;;;6.36;100.00
74045;BME280;62389;51.412;5.436;2023-11-18T11:13:59;101785.22;;;6.37;100.00
74045;BME280;62389;51.412;5.436;2023-11-18T11:16:37;101779.16;;;6.38;100.00
74045;BME280;62389;51.412;5.436;2023-11-18T11:19:04;101770.47;;;6.39;100.00
74045;BME280;62389;51.412;5.436;2023-11-18T11:21:37;101771.34;;;6.39;100.00
74045;BME280;62389;51.412;5.436;2023-11-18T11:24:11;101763.47;;;6.42;100.00
74045;BME280;62389;51.412;5.436;2023-11-18T11:26:53;101750.50;;;6.44;100.00
74045;BME280;62389;51.412;5.436;2023-11-18T11:32:07;101718.41;;;6.46;100.00
74045;BME280;62389;51.412;5.436;2023-11-18T11:34:40;101713.16;;;6.49;100.00
74045;BME280;62389;51.412;5.436;2023-11-18T11:37:11;101698.44;;;6.50;100.00
74045;BME280;62389;51.412;5.436;2023-11-18T11:39:37;101696.66;;;6.52;100.00
74045;BME280;62389;51.412;5.436;2023-11-18T11:42:03;101683.69;;;6.51;100.00
74045;BME280;62389;51.412;5.436;2023-11-18T11:44:34;101678.47;;;6.52;100.00
74045;BME280;62389;51.412;5.436;2023-11-18T11:47:07;101663.72;;;6.54;100.00
74045;BME280;62389;51.412;5.436;2023-11-18T11:49:47;101648.13;;;6.54;100.00
74045;BME280;62389;51.412;5.436;2023-11-18T11:52:22;101648.13;;;6.54;100.00
74045;BME280;62389;51.412;5.436;2023-11-18T11:55:00;101642.94;;;6.54;100.00
74045;BME280;62389;51.412;5.436;2023-11-18T11:57:32;101633.41;;;6.55;100.00
74045;BME280;62389;51.412;5.436;2023-11-18T12:00:03;101634.25;;;6.55;100.00
74045;BME280;62389;51.412;5.436;2023-11-18T12:02:40;101622.09;;;6.57;100.00
74045;BME280;62389;51.412;5.436;2023-11-18T12:05:06;101610.84;;;6.58;100.00
74045;BME280;62389;51.412;5.436;2023-11-18T12:07:32;101591.78;;;6.58;100.00
74045;BME280;62389;51.412;5.436;2023-11-18T12:10:07;101577.03;;;6.58;100.00
74045;BME280;62389;51.412;5.436;2023-11-18T12:12:39;101569.22;;;6.60;100.00
74045;BME280;62389;51.412;5.436;2023-11-18T12:15:05;101569.22;;;6.60;100.00
74045;BME280;62389;51.412;5.436;2023-11-18T12:20:38;101555.31;;;6.61;100.00
74045;BME280;62389;51.412;5.436;2023-11-18T12:23:14;101544.06;;;6.60;100.00
74045;BME280;62389;51.412;5.436;2023-11-18T12:25:43;101517.22;;;6.60;100.00
74045;BME280;62389;51.412;5.436;2023-11-18T12:28:13;101525.06;;;6.58;100.00
74045;BME280;62389;51.412;5.436;2023-11-18T12:30:41;101538.00;;;6.60;100.00
74045;BME280;62389;51.412;5.436;2023-11-18T12:33:17;101534.56;;;6.59;100.00
74045;BME280;62389;51.412;5.436;2023-11-18T12:41:04;101533.72;;;6.59;100.00
74045;BME280;62389;51.412;5.436;2023-11-18T12:49:14;101479.94;;;6.61;100.00
74045;BME280;62389;51.412;5.436;2023-11-18T12:51:45;101466.06;;;6.62;100.00
74045;BME280;62389;51.412;5.436;2023-11-18T12:54:11;101457.41;;;6.63;100.00
74045;BME280;62389;51.412;5.436;2023-11-18T12:56:38;101445.25;;;6.63;100.00
74045;BME280;62389;51.412;5.436;2023-11-18T12:59:09;101432.25;;;6.63;100.00
74045;BME280;62389;51.412;5.436;2023-11-18T13:01:35;101428.78;;;6.64;100.00
74045;BME280;62389;51.412;5.436;2023-11-18T13:04:04;101432.25;;;6.63;100.00
74045;BME280;62389;51.412;5.436;2023-11-18T13:06:29;101430.47;;;6.65;100.00
74045;BME280;62389;51.412;5.436;2023-11-18T13:08:55;101417.44;;;6.67;100.00
74045;BME280;62389;51.412;5.436;2023-11-18T13:11:24;101417.44;;;6.67;100.00
74045;BME280;62389;51.412;5.436;2023-11-18T13:13:53;101401.88;;;6.65;100.00